Pagina principale
METAR-TAF:

METAR-TAF

Aeroporti :

Aeroporto di Genova-Sestri

Genova, Italia

latitudine: 44-25N, longitudine: 008-51E, altezza: 2 m

Osservazione

Il bollettino è stato emesso 23 minuti fa, alle 07:50 UTC
Vento 19 kt da sud-est
Temperature 20°C
Umidità 88%
Pressione 1006 hPa
Visibilità: 5000 m
Poco nuvoloso ad un'altezza di 1100 ft
Nubi sparse ad un'altezza di 2500 ft, Cumulonembo.
Nuvoloso ad un'altezza di 4500 ft
pioggia, foschia

METAR: LIMJ 070750Z 14019KT 5000 RA BR FEW011 SCT025CB BKN045 20/18 Q1006

Ora: 10:13 (08:13 UTC)

Previsione

Il bollettino è stato emesso 3 ore e 13 minuti fa, alle 05:00 UTC
Previsione valida dal 07 alle 06 UTC al 08 alle 06 UTC
Vento 15 kt da sud/sud-est
Visibilità: 7000 m
Nubi sparse ad un'altezza di 1500 ft
Nuvoloso ad un'altezza di 3000 ft
Temporaneamente
dal 07 alle 06 UTC al 08 alle 02 UTC
Visibilità: 4000 m
temporale, pioggia

TAF: LIMJ 070500Z 0706/0806 16015KT 7000 SCT015 BKN030 TEMPO 0706/0802 4000 TSRA

Osservazioni e previsioni meteorologiche di più di 4000 aeroporti (messaggi METAR e TAF).

Le stazioni disponibili sono rappresentate dai dischi gialli e rossi sulla carta.

Puntare il mouse per vedere il nome della stazione.

Clicca sopra per visualizzare le osservazioni e previsioni meteorologiche.

Per cambiare la mappa : fare clic sui pulsanti verdi con una croce nera per ingrandire, il pulsante verde con un trattino per diminuire, o sulla freccia verde per le mappe adiacenti.


METAR-TAF: